Date,TemperatureHighF,TemperatureAvgF,TemperatureLowF,DewpointHighF,DewpointAvgF,DewpointLowF,HumidityHigh,HumidityAvg,HumidityLow,PressureMaxIn,PressureMinIn,WindSpeedMaxMPH,WindSpeedAvgMPH,GustSpeedMaxMPH,PrecipitationSumIn
2013-2-1,30,25,17,17,11,6,77,54,41,30.34,29.85,5,3,14,0.00
2013-2-2,28,22,14,18,11,6,86,61,47,30.46,30.26,4,2,11,0.00
2013-2-3,29,23,17,19,16,14,92,77,58,30.26,29.95,2,1,6,0.00
2013-2-4,29,24,20,18,11,6,83,59,40,30.15,29.95,5,3,15,0.00
2013-2-5,25,23,22,22,18,7,91,80,52,30.19,30.10,2,0,4,0.00
2013-2-6,36,29,24,27,20,1,93,70,35,30.51,30.09,5,2,9,0.00
2013-2-7,31,25,20,16,7,0,64,48,34,30.70,30.51,4,1,7,0.00
2013-2-8,31,28,23,30,25,15,95,88,62,30.59,29.68,9,5,20,0.00
2013-2-9,27,21,18,22,13,0,94,74,33,30.43,29.77,9,5,20,0.00
2013-2-10,38,23,13,20,6,-3,78,49,20,30.64,30.44,4,2,9,0.00
2013-2-11,44,37,26,43,35,19,96,91,75,30.54,29.83,3,1,15,0.00
2013-2-12,44,38,32,39,30,23,96,75,53,30.10,29.85,6,3,13,0.00
2013-2-13,41,34,27,25,24,21,79,67,49,30.10,29.86,3,1,10,0.00
2013-2-14,43,34,26,31,26,22,93,75,46,30.19,29.89,3,1,9,0.00
2013-2-15,47,38,32,37,34,30,95,87,69,30.20,30.10,4,1,11,0.00
2013-2-16,37,33,28,35,27,19,94,78,57,30.11,29.87,5,3,13,0.00
2013-2-17,28,23,15,24,7,0,88,51,33,30.01,29.70,8,6,21,0.00
2013-2-18,31,22,14,10,4,1,61,47,32,30.40,30.00,7,4,21,0.00
2013-2-19,45,36,25,42,30,9,95,79,48,30.40,29.80,4,2,13,0.00
2013-2-20,38,30,22,36,18,9,93,62,45,30.07,29.80,6,4,14,0.00
2013-2-21,32,24,20,16,13,11,71,62,50,30.43,30.06,7,4,20,0.00
2013-2-22,39,30,21,27,21,14,83,72,51,30.58,30.43,6,2,12,0.00
2013-2-23,36,34,32,34,31,27,94,90,81,30.49,29.99,5,3,14,0.00
2013-2-24,38,35,30,35,32,27,94,91,79,30.08,29.88,5,3,13,0.00
2013-2-25,44,35,28,30,27,24,90,74,56,30.42,30.08,3,1,8,0.00
2013-2-26,40,35,31,32,29,27,91,79,60,30.50,30.21,5,1,11,0.00
2013-2-27,43,39,33,41,38,31,95,94,91,30.22,29.71,9,4,25,0.00
2013-2-28,49,39,33,42,36,32,95,91,75,29.80,29.70,2,0,6,0.00